sensor_id;sensor_type;location;lat;lon;timestamp;pressure;altitude;pressure_sealevel;temperature;humidity
61010;BME280;46897;55.340;86.082;2023-04-24T00:00:06;99982.16;;;5.06;49.66
61010;BME280;46897;55.340;86.082;2023-04-24T00:05:43;100100.88;;;5.85;49.75
61010;BME280;46897;55.340;86.082;2023-04-24T00:08:13;100102.59;;;5.86;49.44
61010;BME280;46897;55.340;86.082;2023-04-24T00:10:42;100115.63;;;5.89;49.57
61010;BME280;46897;55.340;86.082;2023-04-24T00:13:30;100063.78;;;5.64;49.40
61010;BME280;46897;55.340;86.082;2023-04-24T00:15:59;99974.97;;;5.13;49.33
61010;BME280;46897;55.340;86.082;2023-04-24T00:18:28;99941.50;;;5.21;49.31
61010;BME280;46897;55.340;86.082;2023-04-24T00:20:58;99974.09;;;5.47;49.23
61010;BME280;46897;55.340;86.082;2023-04-24T00:26:21;99936.44;;;5.48;49.48
61010;BME280;46897;55.340;86.082;2023-04-24T00:28:52;100039.63;;;6.16;49.39
61010;BME280;46897;55.340;86.082;2023-04-24T00:31:21;99980.59;;;5.98;49.42
61010;BME280;46897;55.340;86.082;2023-04-24T00:34:07;100048.78;;;6.34;49.07
61010;BME280;46897;55.340;86.082;2023-04-24T00:36:38;100043.91;;;6.49;49.09
61010;BME280;46897;55.340;86.082;2023-04-24T00:39:07;100013.53;;;6.39;49.13
61010;BME280;46897;55.340;86.082;2023-04-24T00:47:48;100007.97;;;6.78;49.06
61010;BME280;46897;55.340;86.082;2023-04-24T00:50:36;100067.16;;;7.20;48.58
61010;BME280;46897;55.340;86.082;2023-04-24T00:55:52;99874.94;;;6.16;48.57
61010;BME280;46897;55.340;86.082;2023-04-24T00:58:22;100027.63;;;7.21;48.64
61010;BME280;46897;55.340;86.082;2023-04-24T01:00:54;99963.75;;;6.89;48.61
61010;BME280;46897;55.340;86.082;2023-04-24T01:03:29;99939.97;;;6.93;48.19
61010;BME280;46897;55.340;86.082;2023-04-24T01:05:59;99908.50;;;6.89;48.19
61010;BME280;46897;55.340;86.082;2023-04-24T01:11:17;99956.88;;;7.37;47.91
61010;BME280;46897;55.340;86.082;2023-04-24T01:13:47;100020.28;;;7.81;48.15
61010;BME280;46897;55.340;86.082;2023-04-24T01:16:19;99990.56;;;7.78;47.84
61010;BME280;46897;55.340;86.082;2023-04-24T01:18:48;99898.19;;;7.34;48.00
61010;BME280;46897;55.340;86.082;2023-04-24T01:21:20;99927.84;;;7.64;47.74
61010;BME280;46897;55.340;86.082;2023-04-24T01:26:38;99971.72;;;8.12;47.41
61010;BME280;46897;55.340;86.082;2023-04-24T01:29:08;99958.06;;;8.24;47.22
61010;BME280;46897;55.340;86.082;2023-04-24T01:34:26;99968.75;;;8.45;47.26
61010;BME280;46897;55.340;86.082;2023-04-24T01:36:55;99976.09;;;8.59;47.08
61010;BME280;46897;55.340;86.082;2023-04-24T01:39:26;99870.09;;;8.27;46.99
61010;BME280;46897;55.340;86.082;2023-04-24T01:41:56;99915.13;;;8.66;46.67
61010;BME280;46897;55.340;86.082;2023-04-24T01:44:42;99993.72;;;9.23;46.44
61010;BME280;46897;55.340;86.082;2023-04-24T01:47:30;99969.72;;;9.29;46.43
61010;BME280;46897;55.340;86.082;2023-04-24T01:49:59;99882.66;;;8.87;46.41
61010;BME280;46897;55.340;86.082;2023-04-24T01:52:45;99984.72;;;9.49;46.08
61010;BME280;46897;55.340;86.082;2023-04-24T01:55:16;99953.28;;;9.43;45.76
61010;BME280;46897;55.340;86.082;2023-04-24T01:57:46;99992.38;;;9.76;45.58
61010;BME280;46897;55.340;86.082;2023-04-24T02:00:15;99901.75;;;9.33;45.50
61010;BME280;46897;55.340;86.082;2023-04-24T02:02:44;99963.56;;;9.70;45.49
61010;BME280;46897;55.340;86.082;2023-04-24T02:05:14;99881.41;;;9.16;45.32
61010;BME280;46897;55.340;86.082;2023-04-24T02:07:44;99956.72;;;9.84;45.40
61010;BME280;46897;55.340;86.082;2023-04-24T02:10:13;99907.19;;;9.69;45.20
61010;BME280;46897;55.340;86.082;2023-04-24T02:13:03;99959.09;;;10.10;44.98
61010;BME280;46897;55.340;86.082;2023-04-24T02:15:32;99875.75;;;9.63;45.08
61010;BME280;46897;55.340;86.082;2023-04-24T02:18:02;99847.06;;;9.55;45.22
61010;BME280;46897;55.340;86.082;2023-04-24T02:20:31;99897.00;;;9.80;44.99
61010;BME280;46897;55.340;86.082;2023-04-24T02:23:03;99890.94;;;9.97;44.87
61010;BME280;46897;55.340;86.082;2023-04-24T02:25:33;99826.16;;;9.70;44.66
61010;BME280;46897;55.340;86.082;2023-04-24T02:28:21;99880.91;;;10.23;44.53
61010;BME280;46897;55.340;86.082;2023-04-24T02:30:53;99923.19;;;10.43;44.66
61010;BME280;46897;55.340;86.082;2023-04-24T02:33:22;99899.78;;;10.53;44.56
61010;BME280;46897;55.340;86.082;2023-04-24T02:36:11;99933.38;;;10.88;44.31
61010;BME280;46897;55.340;86.082;2023-04-24T02:38:41;99911.66;;;10.98;44.33
61010;BME280;46897;55.340;86.082;2023-04-24T02:41:10;99834.94;;;10.62;43.94
61010;BME280;46897;55.340;86.082;2023-04-24T02:47:03;99921.53;;;11.30;43.69
61010;BME280;46897;55.340;86.082;2023-04-24T02:49:32;99857.09;;;11.29;43.55
61010;BME280;46897;55.340;86.082;2023-04-24T02:52:01;99706.34;;;10.58;43.14
61010;BME280;46897;55.340;86.082;2023-04-24T02:54:31;99866.41;;;11.70;43.29
61010;BME280;46897;55.340;86.082;2023-04-24T02:57:17;99842.22;;;11.76;42.82
61010;BME280;46897;55.340;86.082;2023-04-24T02:59:46;99665.78;;;10.91;42.71
61010;BME280;46897;55.340;86.082;2023-04-24T03:05:22;99862.34;;;12.44;42.65
61010;BME280;46897;55.340;86.082;2023-04-24T03:07:51;99836.84;;;12.41;42.43
61010;BME280;46897;55.340;86.082;2023-04-24T03:10:24;99806.03;;;12.23;42.34
61010;BME280;46897;55.340;86.082;2023-04-24T03:15:40;99832.94;;;12.32;42.07
61010;BME280;46897;55.340;86.082;2023-04-24T03:18:12;99831.22;;;12.31;41.73
61010;BME280;46897;55.340;86.082;2023-04-24T03:20:41;99826.84;;;12.30;41.87
61010;BME280;46897;55.340;86.082;2023-04-24T03:23:12;99798.44;;;12.16;41.87
61010;BME280;46897;55.340;86.082;2023-04-24T03:25:41;99788.25;;;12.09;41.84
61010;BME280;46897;55.340;86.082;2023-04-24T03:28:11;99804.19;;;12.25;41.77
61010;BME280;46897;55.340;86.082;2023-04-24T03:30:40;99759.00;;;12.10;42.00
61010;BME280;46897;55.340;86.082;2023-04-24T03:33:10;99780.38;;;12.23;41.68
61010;BME280;46897;55.340;86.082;2023-04-24T03:35:40;99789.34;;;12.36;41.92
61010;BME280;46897;55.340;86.082;2023-04-24T03:38:09;99789.34;;;12.36;41.92
61010;BME280;46897;55.340;86.082;2023-04-24T03:40:39;99774.34;;;12.35;41.74
61010;BME280;46897;55.340;86.082;2023-04-24T03:45:55;99775.66;;;12.58;41.97
61010;BME280;46897;55.340;86.082;2023-04-24T03:48:25;99752.28;;;12.65;41.84
61010;BME280;46897;55.340;86.082;2023-04-24T03:50:55;99750.56;;;12.78;41.83
61010;BME280;46897;55.340;86.082;2023-04-24T03:53:25;99753.88;;;12.82;41.79
61010;BME280;46897;55.340;86.082;2023-04-24T03:59:00;99752.28;;;12.94;41.80
61010;BME280;46897;55.340;86.082;2023-04-24T04:01:30;99746.03;;;12.95;41.70
61010;BME280;46897;55.340;86.082;2023-04-24T04:04:00;99741.38;;;12.98;41.73
61010;BME280;46897;55.340;86.082;2023-04-24T04:06:30;99740.72;;;13.09;41.81
61010;BME280;46897;55.340;86.082;2023-04-24T04:09:00;99748.97;;;13.19;41.62
61010;BME280;46897;55.340;86.082;2023-04-24T04:11:29;99652.50;;;12.75;41.67
61010;BME280;46897;55.340;86.082;2023-04-24T04:13:59;99740.72;;;13.38;41.58
61010;BME280;46897;55.340;86.082;2023-04-24T04:16:28;99725.84;;;13.35;41.55
61010;BME280;46897;55.340;86.082;2023-04-24T04:18:57;99725.25;;;13.45;41.68
61010;BME280;46897;55.340;86.082;2023-04-24T04:24:19;99719.72;;;13.62;41.61
61010;BME280;46897;55.340;86.082;2023-04-24T04:27:08;99715.59;;;13.71;41.65
61010;BME280;46897;55.340;86.082;2023-04-24T04:29:38;99703.16;;;13.71;41.49
61010;BME280;46897;55.340;86.082;2023-04-24T04:35:30;99693.63;;;13.82;41.43
61010;BME280;46897;55.340;86.082;2023-04-24T04:38:18;99685.56;;;13.96;41.73
61010;BME280;46897;55.340;86.082;2023-04-24T04:40:49;99666.44;;;14.04;41.71
61010;BME280;46897;55.340;86.082;2023-04-24T04:43:18;99669.25;;;14.28;41.89
61010;BME280;46897;55.340;86.082;2023-04-24T04:45:47;99660.13;;;14.45;41.84
61010;BME280;46897;55.340;86.082;2023-04-24T04:48:17;99623.06;;;14.42;41.54
61010;BME280;46897;55.340;86.082;2023-04-24T04:50:46;99649.06;;;14.77;41.60
61010;BME280;46897;55.340;86.082;2023-04-24T04:53:33;99643.38;;;14.94;41.66
61010;BME280;46897;55.340;86.082;2023-04-24T04:56:04;99632.38;;;15.11;41.53
61010;BME280;46897;55.340;86.082;2023-04-24T04:58:33;99619.44;;;15.18;41.55
61010;BME280;46897;55.340;86.082;2023-04-24T05:01:03;99603.88;;;15.25;41.24
61010;BME280;46897;55.340;86.082;2023-04-24T05:03:32;99625.63;;;15.56;41.56
61010;BME280;46897;55.340;86.082;2023-04-24T05:06:02;99613.91;;;15.69;41.43
61010;BME280;46897;55.340;86.082;2023-04-24T05:08:31;99596.06;;;15.70;41.45
61010;BME280;46897;55.340;86.082;2023-04-24T05:11:20;99596.88;;;15.83;41.24
61010;BME280;46897;55.340;86.082;2023-04-24T05:13:50;99581.34;;;15.77;41.40
61010;BME280;46897;55.340;86.082;2023-04-24T05:16:39;99582.34;;;15.87;41.29
61010;BME280;46897;55.340;86.082;2023-04-24T05:19:08;99570.47;;;15.80;41.45
61010;BME280;46897;55.340;86.082;2023-04-24T05:21:39;99573.72;;;15.84;41.48
61010;BME280;46897;55.340;86.082;2023-04-24T05:24:08;99557.44;;;15.76;41.46
61010;BME280;46897;55.340;86.082;2023-04-24T05:29:26;99551.47;;;15.72;41.21
61010;BME280;46897;55.340;86.082;2023-04-24T05:31:55;99529.59;;;15.56;41.35
61010;BME280;46897;55.340;86.082;2023-04-24T05:34:24;99531.69;;;15.63;41.23
61010;BME280;46897;55.340;86.082;2023-04-24T05:36:53;99512.03;;;15.53;41.26
61010;BME280;46897;55.340;86.082;2023-04-24T05:39:40;99509.03;;;15.69;41.24
61010;BME280;46897;55.340;86.082;2023-04-24T05:42:12;99495.66;;;15.58;41.23
61010;BME280;46897;55.340;86.082;2023-04-24T05:44:41;99501.31;;;15.77;41.19
61010;BME280;46897;55.340;86.082;2023-04-24T05:47:10;99494.88;;;15.80;41.20
61010;BME280;46897;55.340;86.082;2023-04-24T05:49:39;99444.28;;;15.67;41.38
61010;BME280;46897;55.340;86.082;2023-04-24T05:52:29;99476.97;;;16.04;41.04
61010;BME280;46897;55.340;86.082;2023-04-24T05:55:15;99444.94;;;16.04;41.32
61010;BME280;46897;55.340;86.082;2023-04-24T05:58:03;99463.13;;;16.44;41.25
61010;BME280;46897;55.340;86.082;2023-04-24T06:03:22;99444.84;;;16.83;40.94
61010;BME280;46897;55.340;86.082;2023-04-24T06:05:51;99405.59;;;16.84;40.44
61010;BME280;46897;55.340;86.082;2023-04-24T06:08:23;99425.16;;;17.17;40.33
61010;BME280;46897;55.340;86.082;2023-04-24T06:11:12;99380.16;;;17.01;40.21
61010;BME280;46897;55.340;86.082;2023-04-24T06:13:43;99412.44;;;17.30;40.36
61010;BME280;46897;55.340;86.082;2023-04-24T06:16:12;99428.31;;;17.43;40.21
61010;BME280;46897;55.340;86.082;2023-04-24T06:18:43;99400.97;;;17.39;39.96
61010;BME280;46897;55.340;86.082;2023-04-24T06:21:15;99412.78;;;17.58;40.10
61010;BME280;46897;55.340;86.082;2023-04-24T06:24:03;99401.28;;;17.67;40.19
61010;BME280;46897;55.340;86.082;2023-04-24T06:26:33;99392.28;;;17.68;40.29
61010;BME280;46897;55.340;86.082;2023-04-24T06:29:27;99273.16;;;17.12;40.33
61010;BME280;46897;55.340;86.082;2023-04-24T06:34:45;99338.16;;;17.85;39.61
61010;BME280;46897;55.340;86.082;2023-04-24T06:37:14;99304.59;;;17.81;39.39
61010;BME280;46897;55.340;86.082;2023-04-24T06:42:33;99357.16;;;18.42;39.83
61010;BME280;46897;55.340;86.082;2023-04-24T06:45:22;99402.47;;;18.65;39.34
61010;BME280;46897;55.340;86.082;2023-04-24T06:47:51;99354.69;;;18.70;39.19
61010;BME280;46897;55.340;86.082;2023-04-24T06:50:20;99308.41;;;18.49;38.94
61010;BME280;46897;55.340;86.082;2023-04-24T06:53:08;99329.84;;;18.68;38.38
61010;BME280;46897;55.340;86.082;2023-04-24T06:55:39;99304.72;;;18.50;38.18
61010;BME280;46897;55.340;86.082;2023-04-24T07:00:57;99310.09;;;18.69;37.94
61010;BME280;46897;55.340;86.082;2023-04-24T07:03:27;99319.16;;;18.88;38.52
61010;BME280;46897;55.340;86.082;2023-04-24T07:05:57;99314.34;;;18.91;38.17
61010;BME280;46897;55.340;86.082;2023-04-24T07:08:26;99331.72;;;18.97;37.87
61010;BME280;46897;55.340;86.082;2023-04-24T07:10:57;99306.31;;;19.01;38.00
61010;BME280;46897;55.340;86.082;2023-04-24T07:16:15;99292.34;;;18.97;37.75
61010;BME280;46897;55.340;86.082;2023-04-24T07:18:45;99291.47;;;19.07;37.81
61010;BME280;46897;55.340;86.082;2023-04-24T07:21:14;99288.59;;;19.18;37.73
61010;BME280;46897;55.340;86.082;2023-04-24T07:23:43;99268.56;;;19.12;37.42
61010;BME280;46897;55.340;86.082;2023-04-24T07:26:30;99279.00;;;19.25;37.29
61010;BME280;46897;55.340;86.082;2023-04-24T07:28:59;99242.63;;;19.13;37.09
61010;BME280;46897;55.340;86.082;2023-04-24T07:31:30;99270.75;;;19.36;37.33
61010;BME280;46897;55.340;86.082;2023-04-24T07:34:00;99275.41;;;19.44;37.27
61010;BME280;46897;55.340;86.082;2023-04-24T07:36:29;99256.03;;;19.50;37.42
61010;BME280;46897;55.340;86.082;2023-04-24T07:38:59;99245.09;;;19.61;36.84
61010;BME280;46897;55.340;86.082;2023-04-24T07:41:46;99247.72;;;19.71;36.49
61010;BME280;46897;55.340;86.082;2023-04-24T07:44:15;99201.66;;;19.48;36.60
61010;BME280;46897;55.340;86.082;2023-04-24T07:46:46;99206.78;;;19.69;36.59
61010;BME280;46897;55.340;86.082;2023-04-24T07:49:15;99253.69;;;19.93;36.41
61010;BME280;46897;55.340;86.082;2023-04-24T07:52:04;99232.00;;;20.04;36.62
61010;BME280;46897;55.340;86.082;2023-04-24T07:54:50;99224.03;;;20.12;37.05
61010;BME280;46897;55.340;86.082;2023-04-24T07:57:25;99221.34;;;20.12;36.52
61010;BME280;46897;55.340;86.082;2023-04-24T07:59:54;99188.97;;;19.96;36.24
61010;BME280;46897;55.340;86.082;2023-04-24T08:02:43;99207.69;;;20.06;36.35
61010;BME280;46897;55.340;86.082;2023-04-24T08:05:13;99205.84;;;20.06;36.38
61010;BME280;46897;55.340;86.082;2023-04-24T08:08:00;99204.25;;;20.13;36.24
61010;BME280;46897;55.340;86.082;2023-04-24T08:10:29;99201.00;;;20.28;36.43
61010;BME280;46897;55.340;86.082;2023-04-24T08:12:58;99189.72;;;20.42;36.31
61010;BME280;46897;55.340;86.082;2023-04-24T08:15:29;99173.00;;;20.56;36.13
61010;BME280;46897;55.340;86.082;2023-04-24T08:18:18;99168.25;;;20.68;36.21
61010;BME280;46897;55.340;86.082;2023-04-24T08:20:47;99170.91;;;20.86;36.06
61010;BME280;46897;55.340;86.082;2023-04-24T08:23:35;99169.38;;;21.18;36.24
61010;BME280;46897;55.340;86.082;2023-04-24T08:26:04;99166.13;;;21.40;35.94
61010;BME280;46897;55.340;86.082;2023-04-24T08:28:34;99158.78;;;21.59;36.08
61010;BME280;46897;55.340;86.082;2023-04-24T08:31:20;99156.38;;;21.98;35.80
61010;BME280;46897;55.340;86.082;2023-04-24T08:33:51;99146.44;;;22.40;35.67
61010;BME280;46897;55.340;86.082;2023-04-24T08:36:21;99139.97;;;22.82;34.92
61010;BME280;46897;55.340;86.082;2023-04-24T08:39:02;99131.56;;;22.85;34.47
61010;BME280;46897;55.340;86.082;2023-04-24T08:44:36;99131.28;;;22.47;34.30
61010;BME280;46897;55.340;86.082;2023-04-24T08:47:07;99145.25;;;22.59;33.90
61010;BME280;46897;55.340;86.082;2023-04-24T08:49:56;99140.19;;;22.64;33.68
61010;BME280;46897;55.340;86.082;2023-04-24T08:52:44;99123.63;;;22.84;33.55
61010;BME280;46897;55.340;86.082;2023-04-24T08:55:14;99114.78;;;23.14;33.25
61010;BME280;46897;55.340;86.082;2023-04-24T08:57:47;99112.59;;;23.81;32.40
61010;BME280;46897;55.340;86.082;2023-04-24T09:00:20;99107.38;;;24.40;32.01
61010;BME280;46897;55.340;86.082;2023-04-24T09:03:08;99089.91;;;24.96;31.26
61010;BME280;46897;55.340;86.082;2023-04-24T09:05:39;99101.66;;;25.33;31.53
61010;BME280;46897;55.340;86.082;2023-04-24T09:08:26;99112.34;;;25.77;31.40
61010;BME280;46897;55.340;86.082;2023-04-24T09:10:57;99067.84;;;25.86;31.28
61010;BME280;46897;55.340;86.082;2023-04-24T09:13:30;99084.00;;;25.95;30.98
61010;BME280;46897;55.340;86.082;2023-04-24T09:16:00;99074.19;;;25.57;31.19
61010;BME280;46897;55.340;86.082;2023-04-24T09:18:29;99064.22;;;25.06;31.64
61010;BME280;46897;55.340;86.082;2023-04-24T09:21:00;99070.06;;;24.50;31.88
61010;BME280;46897;55.340;86.082;2023-04-24T09:23:30;99070.16;;;23.89;31.97
61010;BME280;46897;55.340;86.082;2023-04-24T09:26:01;99073.91;;;23.26;32.42
61010;BME280;46897;55.340;86.082;2023-04-24T09:28:34;99076.16;;;22.66;32.67
61010;BME280;46897;55.340;86.082;2023-04-24T09:33:56;99082.91;;;21.55;33.37
61010;BME280;46897;55.340;86.082;2023-04-24T09:39:36;99089.47;;;20.68;33.87
61010;BME280;46897;55.340;86.082;2023-04-24T09:42:05;99046.41;;;20.07;33.77
61010;BME280;46897;55.340;86.082;2023-04-24T09:47:38;99064.44;;;19.79;34.59
61010;BME280;46897;55.340;86.082;2023-04-24T09:50:16;99081.59;;;19.68;34.77
61010;BME280;46897;55.340;86.082;2023-04-24T09:52:56;99077.75;;;19.53;35.06
61010;BME280;46897;55.340;86.082;2023-04-24T09:55:31;99080.06;;;19.30;35.08
61010;BME280;46897;55.340;86.082;2023-04-24T09:58:04;99086.97;;;19.04;35.39
61010;BME280;46897;55.340;86.082;2023-04-24T10:00:56;99091.88;;;18.81;35.87
61010;BME280;46897;55.340;86.082;2023-04-24T10:03:43;99092.63;;;18.64;35.96
61010;BME280;46897;55.340;86.082;2023-04-24T10:09:39;99054.00;;;18.00;36.86
61010;BME280;46897;55.340;86.082;2023-04-24T10:12:11;99072.72;;;18.00;37.11
61010;BME280;46897;55.340;86.082;2023-04-24T10:14:41;99078.94;;;18.00;37.59
61010;BME280;46897;55.340;86.082;2023-04-24T10:17:14;99078.63;;;18.13;37.93
61010;BME280;46897;55.340;86.082;2023-04-24T10:23:07;99055.78;;;19.03;37.93
61010;BME280;46897;55.340;86.082;2023-04-24T10:25:37;99043.03;;;19.51;38.08
61010;BME280;46897;55.340;86.082;2023-04-24T10:28:11;99027.06;;;20.03;37.89
61010;BME280;46897;55.340;86.082;2023-04-24T10:30:59;99036.78;;;20.57;37.59
61010;BME280;46897;55.340;86.082;2023-04-24T10:33:29;99028.22;;;21.88;37.79
61010;BME280;46897;55.340;86.082;2023-04-24T10:36:00;99026.91;;;23.66;36.59
61010;BME280;46897;55.340;86.082;2023-04-24T10:38:33;99012.84;;;25.28;35.56
61010;BME280;46897;55.340;86.082;2023-04-24T10:41:08;99017.47;;;26.90;35.05
61010;BME280;46897;55.340;86.082;2023-04-24T10:43:45;99007.72;;;27.97;34.04
61010;BME280;46897;55.340;86.082;2023-04-24T10:46:30;99002.63;;;28.41;34.16
61010;BME280;46897;55.340;86.082;2023-04-24T10:51:53;98979.44;;;28.97;33.16
61010;BME280;46897;55.340;86.082;2023-04-24T10:54:24;98986.31;;;28.48;33.45
61010;BME280;46897;55.340;86.082;2023-04-24T10:57:27;98952.94;;;27.94;33.63
61010;BME280;46897;55.340;86.082;2023-04-24T11:00:19;98966.06;;;27.77;33.57
61010;BME280;46897;55.340;86.082;2023-04-24T11:02:49;98940.75;;;27.30;33.53
61010;BME280;46897;55.340;86.082;2023-04-24T11:05:55;98965.00;;;26.76;33.93
61010;BME280;46897;55.340;86.082;2023-04-24T11:08:31;98950.41;;;26.42;34.23
61010;BME280;46897;55.340;86.082;2023-04-24T11:11:03;98941.28;;;26.15;34.54
61010;BME280;46897;55.340;86.082;2023-04-24T11:14:01;98931.56;;;26.69;34.13
61010;BME280;46897;55.340;86.082;2023-04-24T11:16:34;98914.44;;;27.50;33.53
61010;BME280;46897;55.340;86.082;2023-04-24T11:19:18;98930.22;;;28.53;32.54
61010;BME280;46897;55.340;86.082;2023-04-24T11:21:55;98918.16;;;29.19;31.68
61010;BME280;46897;55.340;86.082;2023-04-24T11:24:32;98920.47;;;29.48;31.95
61010;BME280;46897;55.340;86.082;2023-04-24T11:27:39;98912.09;;;29.11;31.94
61010;BME280;46897;55.340;86.082;2023-04-24T11:30:17;98873.91;;;28.54;32.00
61010;BME280;46897;55.340;86.082;2023-04-24T11:32:51;98898.00;;;28.37;32.21
61010;BME280;46897;55.340;86.082;2023-04-24T11:35:21;98884.53;;;27.63;32.74
61010;BME280;46897;55.340;86.082;2023-04-24T11:37:53;98868.47;;;27.29;32.82
61010;BME280;46897;55.340;86.082;2023-04-24T11:40:25;98877.63;;;27.41;32.97
61010;BME280;46897;55.340;86.082;2023-04-24T11:43:26;98857.06;;;28.12;32.38
61010;BME280;46897;55.340;86.082;2023-04-24T11:45:59;98821.47;;;28.20;32.10
61010;BME280;46897;55.340;86.082;2023-04-24T11:51:41;98854.69;;;27.43;32.15
61010;BME280;46897;55.340;86.082;2023-04-24T11:54:20;98819.53;;;26.82;32.64
61010;BME280;46897;55.340;86.082;2023-04-24T11:56:49;98835.03;;;25.92;33.15
61010;BME280;46897;55.340;86.082;2023-04-24T11:59:18;98836.09;;;24.69;33.72
61010;BME280;46897;55.340;86.082;2023-04-24T12:04:41;98827.31;;;22.49;35.54
61010;BME280;46897;55.340;86.082;2023-04-24T12:09:59;98775.75;;;20.76;36.65
61010;BME280;46897;55.340;86.082;2023-04-24T12:12:29;98766.28;;;20.23;36.80
61010;BME280;46897;55.340;86.082;2023-04-24T12:14:58;98805.00;;;20.04;37.31
61010;BME280;46897;55.340;86.082;2023-04-24T12:17:29;98774.06;;;19.57;37.55
61010;BME280;46897;55.340;86.082;2023-04-24T12:20:02;98793.63;;;19.41;37.88
61010;BME280;46897;55.340;86.082;2023-04-24T12:22:50;98800.28;;;19.11;37.97
61010;BME280;46897;55.340;86.082;2023-04-24T12:25:38;98803.22;;;18.82;38.23
61010;BME280;46897;55.340;86.082;2023-04-24T12:28:12;98783.13;;;18.50;38.46
61010;BME280;46897;55.340;86.082;2023-04-24T12:30:43;98792.34;;;18.30;38.90
61010;BME280;46897;55.340;86.082;2023-04-24T12:33:12;98800.09;;;18.05;39.10
61010;BME280;46897;55.340;86.082;2023-04-24T12:38:56;98764.97;;;17.53;39.34
61010;BME280;46897;55.340;86.082;2023-04-24T12:41:26;98790.28;;;17.58;39.43
61010;BME280;46897;55.340;86.082;2023-04-24T12:43:55;98779.91;;;17.45;39.50
61010;BME280;46897;55.340;86.082;2023-04-24T12:46:24;98785.56;;;17.42;39.42
61010;BME280;46897;55.340;86.082;2023-04-24T12:51:57;98762.66;;;17.20;40.21
61010;BME280;46897;55.340;86.082;2023-04-24T12:57:36;98771.31;;;17.04;40.13
61010;BME280;46897;55.340;86.082;2023-04-24T13:00:11;98761.78;;;16.92;40.28
61010;BME280;46897;55.340;86.082;2023-04-24T13:03:00;98769.38;;;16.87;39.99
61010;BME280;46897;55.340;86.082;2023-04-24T13:05:47;98722.13;;;16.58;39.97
61010;BME280;46897;55.340;86.082;2023-04-24T13:08:18;98720.72;;;16.54;40.22
61010;BME280;46897;55.340;86.082;2023-04-24T13:10:50;98747.97;;;16.67;40.45
61010;BME280;46897;55.340;86.082;2023-04-24T13:13:21;98716.50;;;16.51;40.43
61010;BME280;46897;55.340;86.082;2023-04-24T13:16:21;98614.78;;;15.67;40.64
61010;BME280;46897;55.340;86.082;2023-04-24T13:18:51;98735.03;;;16.53;40.77
61010;BME280;46897;55.340;86.082;2023-04-24T13:21:20;98728.03;;;16.52;41.10
61010;BME280;46897;55.340;86.082;2023-04-24T13:23:51;98701.34;;;16.33;41.58
61010;BME280;46897;55.340;86.082;2023-04-24T13:26:20;98716.53;;;16.42;41.19
61010;BME280;46897;55.340;86.082;2023-04-24T13:28:50;98714.56;;;16.34;41.54
61010;BME280;46897;55.340;86.082;2023-04-24T13:31:19;98709.06;;;16.26;41.39
61010;BME280;46897;55.340;86.082;2023-04-24T13:33:48;98688.69;;;16.05;41.61
61010;BME280;46897;55.340;86.082;2023-04-24T13:39:12;98681.84;;;15.72;41.79
61010;BME280;46897;55.340;86.082;2023-04-24T13:41:44;98677.47;;;15.51;42.02
61010;BME280;46897;55.340;86.082;2023-04-24T13:44:16;98666.94;;;15.50;42.27
61010;BME280;46897;55.340;86.082;2023-04-24T13:46:47;98621.78;;;15.08;42.52
61010;BME280;46897;55.340;86.082;2023-04-24T13:52:07;98700.47;;;15.52;42.53
61010;BME280;46897;55.340;86.082;2023-04-24T13:54:39;98683.72;;;15.31;42.25
61010;BME280;46897;55.340;86.082;2023-04-24T13:57:08;98657.00;;;15.11;42.29
61010;BME280;46897;55.340;86.082;2023-04-24T13:59:37;98702.66;;;15.28;42.46
61010;BME280;46897;55.340;86.082;2023-04-24T14:02:07;98686.25;;;15.02;42.23
61010;BME280;46897;55.340;86.082;2023-04-24T14:04:50;98708.75;;;15.09;42.22
61010;BME280;46897;55.340;86.082;2023-04-24T14:07:36;98567.09;;;14.21;42.07
61010;BME280;46897;55.340;86.082;2023-04-24T14:10:10;98669.16;;;14.73;42.43
61010;BME280;46897;55.340;86.082;2023-04-24T14:12:58;98658.22;;;14.55;42.50
61010;BME280;46897;55.340;86.082;2023-04-24T14:15:49;98478.75;;;13.22;42.38
61010;BME280;46897;55.340;86.082;2023-04-24T14:18:21;98623.84;;;14.22;42.33
61010;BME280;46897;55.340;86.082;2023-04-24T14:20:51;98577.97;;;13.76;42.65
61010;BME280;46897;55.340;86.082;2023-04-24T14:23:20;98639.97;;;14.09;42.72
61010;BME280;46897;55.340;86.082;2023-04-24T14:26:10;98689.97;;;14.26;42.95
61010;BME280;46897;55.340;86.082;2023-04-24T14:28:45;98697.69;;;13.97;43.10
61010;BME280;46897;55.340;86.082;2023-04-24T14:31:20;98667.69;;;13.63;43.15
61010;BME280;46897;55.340;86.082;2023-04-24T14:33:49;98577.66;;;13.03;43.38
61010;BME280;46897;55.340;86.082;2023-04-24T14:36:36;98703.81;;;13.65;43.66
61010;BME280;46897;55.340;86.082;2023-04-24T14:39:24;98700.59;;;13.50;43.98
61010;BME280;46897;55.340;86.082;2023-04-24T14:41:55;98704.22;;;13.38;43.52
61010;BME280;46897;55.340;86.082;2023-04-24T14:44:41;98708.06;;;13.23;43.77
61010;BME280;46897;55.340;86.082;2023-04-24T14:47:11;98546.25;;;11.95;43.96
61010;BME280;46897;55.340;86.082;2023-04-24T14:49:40;98576.69;;;12.14;44.19
61010;BME280;46897;55.340;86.082;2023-04-24T14:52:14;98699.59;;;12.84;44.33
61010;BME280;46897;55.340;86.082;2023-04-24T14:55:02;98697.00;;;12.71;44.48
61010;BME280;46897;55.340;86.082;2023-04-24T14:57:33;98586.13;;;11.70;44.41
61010;BME280;46897;55.340;86.082;2023-04-24T15:00:03;98578.69;;;11.75;44.32
61010;BME280;46897;55.340;86.082;2023-04-24T15:02:33;98732.28;;;12.37;44.42
61010;BME280;46897;55.340;86.082;2023-04-24T15:05:46;98705.84;;;12.25;44.78
61010;BME280;46897;55.340;86.082;2023-04-24T15:08:15;98661.56;;;11.90;44.91
61010;BME280;46897;55.340;86.082;2023-04-24T15:10:45;98710.38;;;12.11;44.95
61010;BME280;46897;55.340;86.082;2023-04-24T15:13:16;98687.00;;;11.92;45.08